sensor_id;sensor_type;location;lat;lon;timestamp;temperature;humidity
34542;DHT22;20784;51.332;12.410;2022-11-02T00:01:16;11.70;99.90
34542;DHT22;20784;51.332;12.410;2022-11-02T00:03:42;11.50;99.90
34542;DHT22;20784;51.332;12.410;2022-11-02T00:06:08;11.50;99.90
34542;DHT22;20784;51.332;12.410;2022-11-02T00:08:34;11.50;99.90
34542;DHT22;20784;51.332;12.410;2022-11-02T00:10:59;11.50;99.90
34542;DHT22;20784;51.332;12.410;2022-11-02T00:13:25;11.50;99.90
34542;DHT22;20784;51.332;12.410;2022-11-02T00:15:50;11.40;99.90
34542;DHT22;20784;51.332;12.410;2022-11-02T00:18:16;11.40;99.90
34542;DHT22;20784;51.332;12.410;2022-11-02T00:20:42;11.40;99.90
34542;DHT22;20784;51.332;12.410;2022-11-02T00:23:09;11.50;99.90
34542;DHT22;20784;51.332;12.410;2022-11-02T00:25:43;11.40;99.90
34542;DHT22;20784;51.332;12.410;2022-11-02T00:28:12;11.40;99.90
34542;DHT22;20784;51.332;12.410;2022-11-02T00:30:38;11.50;99.90
34542;DHT22;20784;51.332;12.410;2022-11-02T00:33:04;11.40;99.90
34542;DHT22;20784;51.332;12.410;2022-11-02T00:35:30;11.40;99.90
34542;DHT22;20784;51.332;12.410;2022-11-02T00:37:55;11.40;99.90
34542;DHT22;20784;51.332;12.410;2022-11-02T00:40:21;11.30;99.90
34542;DHT22;20784;51.332;12.410;2022-11-02T00:42:49;11.40;99.90
34542;DHT22;20784;51.332;12.410;2022-11-02T00:45:14;11.40;99.90
34542;DHT22;20784;51.332;12.410;2022-11-02T00:47:42;11.30;99.90
34542;DHT22;20784;51.332;12.410;2022-11-02T00:50:08;11.40;99.90
34542;DHT22;20784;51.332;12.410;2022-11-02T00:52:34;11.40;99.90
34542;DHT22;20784;51.332;12.410;2022-11-02T00:54:59;11.40;99.90
34542;DHT22;20784;51.332;12.410;2022-11-02T00:57:25;11.30;99.90
34542;DHT22;20784;51.332;12.410;2022-11-02T00:59:51;11.40;99.90
34542;DHT22;20784;51.332;12.410;2022-11-02T01:02:16;11.40;99.90
34542;DHT22;20784;51.332;12.410;2022-11-02T01:04:42;11.30;99.90
34542;DHT22;20784;51.332;12.410;2022-11-02T01:07:08;11.30;99.90
34542;DHT22;20784;51.332;12.410;2022-11-02T01:09:34;11.30;99.90
34542;DHT22;20784;51.332;12.410;2022-11-02T01:12:00;11.30;99.90
34542;DHT22;20784;51.332;12.410;2022-11-02T01:14:28;11.20;99.90
34542;DHT22;20784;51.332;12.410;2022-11-02T01:16:54;11.10;99.90
34542;DHT22;20784;51.332;12.410;2022-11-02T01:19:22;11.10;99.90
34542;DHT22;20784;51.332;12.410;2022-11-02T01:21:48;11.10;99.90
34542;DHT22;20784;51.332;12.410;2022-11-02T01:24:14;11.10;99.90
34542;DHT22;20784;51.332;12.410;2022-11-02T01:26:39;11.10;99.90
34542;DHT22;20784;51.332;12.410;2022-11-02T01:29:05;11.10;99.90
34542;DHT22;20784;51.332;12.410;2022-11-02T01:31:31;11.00;99.90
34542;DHT22;20784;51.332;12.410;2022-11-02T01:33:56;11.00;99.90
34542;DHT22;20784;51.332;12.410;2022-11-02T01:36:22;11.10;99.90
34542;DHT22;20784;51.332;12.410;2022-11-02T01:38:48;11.00;99.90
34542;DHT22;20784;51.332;12.410;2022-11-02T01:41:15;11.00;99.90
34542;DHT22;20784;51.332;12.410;2022-11-02T01:43:43;10.90;99.90
34542;DHT22;20784;51.332;12.410;2022-11-02T01:48:41;10.90;99.90
34542;DHT22;20784;51.332;12.410;2022-11-02T01:54:11;10.70;99.90
34542;DHT22;20784;51.332;12.410;2022-11-02T01:56:39;10.70;99.90
34542;DHT22;20784;51.332;12.410;2022-11-02T01:59:10;10.70;99.90
34542;DHT22;20784;51.332;12.410;2022-11-02T02:01:37;10.70;99.90
34542;DHT22;20784;51.332;12.410;2022-11-02T02:04:03;10.70;99.90
34542;DHT22;20784;51.332;12.410;2022-11-02T02:06:29;10.70;99.90
34542;DHT22;20784;51.332;12.410;2022-11-02T02:08:58;10.60;99.90
34542;DHT22;20784;51.332;12.410;2022-11-02T02:11:32;10.50;99.90
34542;DHT22;20784;51.332;12.410;2022-11-02T02:22:49;10.50;99.90
34542;DHT22;20784;51.332;12.410;2022-11-02T02:31:13;10.50;99.90
34542;DHT22;20784;51.332;12.410;2022-11-02T02:39:03;10.60;99.90
34542;DHT22;20784;51.332;12.410;2022-11-02T02:41:42;10.60;99.90
34542;DHT22;20784;51.332;12.410;2022-11-02T02:44:19;10.60;99.90
34542;DHT22;20784;51.332;12.410;2022-11-02T02:46:53;10.60;99.90
34542;DHT22;20784;51.332;12.410;2022-11-02T02:49:27;10.50;99.90
34542;DHT22;20784;51.332;12.410;2022-11-02T02:51:55;10.60;99.90
34542;DHT22;20784;51.332;12.410;2022-11-02T02:54:25;10.50;99.90
34542;DHT22;20784;51.332;12.410;2022-11-02T02:56:57;10.60;99.90
34542;DHT22;20784;51.332;12.410;2022-11-02T02:59:28;10.70;99.90
34542;DHT22;20784;51.332;12.410;2022-11-02T03:01:55;10.60;99.90
34542;DHT22;20784;51.332;12.410;2022-11-02T03:04:21;10.60;99.90
34542;DHT22;20784;51.332;12.410;2022-11-02T03:06:50;10.60;99.90
34542;DHT22;20784;51.332;12.410;2022-11-02T03:09:28;10.60;99.90
34542;DHT22;20784;51.332;12.410;2022-11-02T03:12:06;10.60;99.90
34542;DHT22;20784;51.332;12.410;2022-11-02T03:17:40;10.60;99.90
34542;DHT22;20784;51.332;12.410;2022-11-02T03:23:18;10.70;99.90
34542;DHT22;20784;51.332;12.410;2022-11-02T03:26:23;10.60;99.90
34542;DHT22;20784;51.332;12.410;2022-11-02T03:29:05;10.60;99.90
34542;DHT22;20784;51.332;12.410;2022-11-02T03:31:57;10.60;99.90
34542;DHT22;20784;51.332;12.410;2022-11-02T03:34:30;10.60;99.90
34542;DHT22;20784;51.332;12.410;2022-11-02T03:37:09;10.60;99.90
34542;DHT22;20784;51.332;12.410;2022-11-02T03:39:39;10.60;99.90
34542;DHT22;20784;51.332;12.410;2022-11-02T03:42:06;10.60;99.90
34542;DHT22;20784;51.332;12.410;2022-11-02T03:44:37;10.60;99.90
34542;DHT22;20784;51.332;12.410;2022-11-02T03:47:04;10.60;99.90
34542;DHT22;20784;51.332;12.410;2022-11-02T03:49:32;10.60;99.90
34542;DHT22;20784;51.332;12.410;2022-11-02T03:52:02;10.70;99.90
34542;DHT22;20784;51.332;12.410;2022-11-02T03:54:52;10.50;99.90
34542;DHT22;20784;51.332;12.410;2022-11-02T03:57:24;10.60;99.90
34542;DHT22;20784;51.332;12.410;2022-11-02T03:59:51;10.60;99.90
34542;DHT22;20784;51.332;12.410;2022-11-02T04:02:17;10.70;99.90
34542;DHT22;20784;51.332;12.410;2022-11-02T04:04:51;10.60;99.90
34542;DHT22;20784;51.332;12.410;2022-11-02T04:07:24;10.70;99.90
34542;DHT22;20784;51.332;12.410;2022-11-02T04:09:52;10.70;99.90
34542;DHT22;20784;51.332;12.410;2022-11-02T04:12:17;10.70;99.90
34542;DHT22;20784;51.332;12.410;2022-11-02T04:15:02;10.60;99.90
34542;DHT22;20784;51.332;12.410;2022-11-02T04:17:27;10.60;99.90
34542;DHT22;20784;51.332;12.410;2022-11-02T04:20:12;10.60;99.90
34542;DHT22;20784;51.332;12.410;2022-11-02T04:22:38;10.60;99.90
34542;DHT22;20784;51.332;12.410;2022-11-02T04:25:22;10.60;99.90
34542;DHT22;20784;51.332;12.410;2022-11-02T04:27:50;10.60;99.90
34542;DHT22;20784;51.332;12.410;2022-11-02T04:30:18;10.50;99.90
34542;DHT22;20784;51.332;12.410;2022-11-02T04:32:46;10.60;99.90
34542;DHT22;20784;51.332;12.410;2022-11-02T04:35:31;10.60;99.90
34542;DHT22;20784;51.332;12.410;2022-11-02T04:37:58;10.60;99.90
34542;DHT22;20784;51.332;12.410;2022-11-02T04:40:42;10.60;99.90
34542;DHT22;20784;51.332;12.410;2022-11-02T04:43:08;10.60;99.90
34542;DHT22;20784;51.332;12.410;2022-11-02T04:45:33;10.50;99.90
34542;DHT22;20784;51.332;12.410;2022-11-02T04:48:00;10.50;99.90
34542;DHT22;20784;51.332;12.410;2022-11-02T04:50:29;10.50;99.90
34542;DHT22;20784;51.332;12.410;2022-11-02T04:52:57;10.60;99.90
34542;DHT22;20784;51.332;12.410;2022-11-02T04:55:22;10.60;99.90
34542;DHT22;20784;51.332;12.410;2022-11-02T04:57:48;10.50;99.90
34542;DHT22;20784;51.332;12.410;2022-11-02T05:00:14;10.50;99.90
34542;DHT22;20784;51.332;12.410;2022-11-02T05:02:40;10.50;99.90
34542;DHT22;20784;51.332;12.410;2022-11-02T05:05:06;10.60;99.90
34542;DHT22;20784;51.332;12.410;2022-11-02T05:07:32;10.60;99.90
34542;DHT22;20784;51.332;12.410;2022-11-02T05:10:01;10.50;99.90
34542;DHT22;20784;51.332;12.410;2022-11-02T05:12:26;10.50;99.90
34542;DHT22;20784;51.332;12.410;2022-11-02T05:14:52;10.50;99.90
34542;DHT22;20784;51.332;12.410;2022-11-02T05:17:17;10.60;99.90
34542;DHT22;20784;51.332;12.410;2022-11-02T05:19:43;10.50;99.90
34542;DHT22;20784;51.332;12.410;2022-11-02T05:22:09;10.50;99.90
34542;DHT22;20784;51.332;12.410;2022-11-02T05:24:34;10.50;99.90
34542;DHT22;20784;51.332;12.410;2022-11-02T05:27:00;10.50;99.90
34542;DHT22;20784;51.332;12.410;2022-11-02T05:29:26;10.50;99.90
34542;DHT22;20784;51.332;12.410;2022-11-02T05:31:52;10.50;99.90
34542;DHT22;20784;51.332;12.410;2022-11-02T05:34:23;10.60;99.90
34542;DHT22;20784;51.332;12.410;2022-11-02T05:36:49;10.60;99.90
34542;DHT22;20784;51.332;12.410;2022-11-02T05:39:14;10.50;99.90
34542;DHT22;20784;51.332;12.410;2022-11-02T05:41:40;10.60;99.90
34542;DHT22;20784;51.332;12.410;2022-11-02T05:44:06;10.50;99.90
34542;DHT22;20784;51.332;12.410;2022-11-02T05:46:34;10.60;99.90
34542;DHT22;20784;51.332;12.410;2022-11-02T05:49:01;10.60;99.90
34542;DHT22;20784;51.332;12.410;2022-11-02T05:51:26;10.60;99.90
34542;DHT22;20784;51.332;12.410;2022-11-02T05:53:56;10.60;99.90
34542;DHT22;20784;51.332;12.410;2022-11-02T05:56:33;10.60;99.90
34542;DHT22;20784;51.332;12.410;2022-11-02T05:59:00;10.60;99.90
34542;DHT22;20784;51.332;12.410;2022-11-02T06:01:25;10.70;99.90
34542;DHT22;20784;51.332;12.410;2022-11-02T06:03:51;10.70;99.90
34542;DHT22;20784;51.332;12.410;2022-11-02T06:06:17;10.70;99.90
34542;DHT22;20784;51.332;12.410;2022-11-02T06:08:46;10.80;99.90
34542;DHT22;20784;51.332;12.410;2022-11-02T06:11:14;10.80;99.90
34542;DHT22;20784;51.332;12.410;2022-11-02T06:13:41;10.80;99.90
34542;DHT22;20784;51.332;12.410;2022-11-02T06:16:08;10.90;99.90
34542;DHT22;20784;51.332;12.410;2022-11-02T06:18:37;10.90;99.90
34542;DHT22;20784;51.332;12.410;2022-11-02T06:21:04;10.90;99.90
34542;DHT22;20784;51.332;12.410;2022-11-02T06:23:30;11.00;99.90
34542;DHT22;20784;51.332;12.410;2022-11-02T06:25:58;11.00;99.90
34542;DHT22;20784;51.332;12.410;2022-11-02T06:28:24;11.00;99.90
34542;DHT22;20784;51.332;12.410;2022-11-02T06:30:49;11.00;99.90
34542;DHT22;20784;51.332;12.410;2022-11-02T06:33:16;11.10;99.90
34542;DHT22;20784;51.332;12.410;2022-11-02T06:35:50;11.10;99.90
34542;DHT22;20784;51.332;12.410;2022-11-02T06:38:19;11.10;99.90
34542;DHT22;20784;51.332;12.410;2022-11-02T06:43:20;11.10;99.90
34542;DHT22;20784;51.332;12.410;2022-11-02T06:45:48;11.20;99.90
34542;DHT22;20784;51.332;12.410;2022-11-02T06:48:14;11.30;99.90
34542;DHT22;20784;51.332;12.410;2022-11-02T06:50:39;11.20;99.90
34542;DHT22;20784;51.332;12.410;2022-11-02T06:53:13;11.30;99.90
34542;DHT22;20784;51.332;12.410;2022-11-02T06:56:32;11.40;99.90
34542;DHT22;20784;51.332;12.410;2022-11-02T06:59:29;11.70;99.90
34542;DHT22;20784;51.332;12.410;2022-11-02T07:02:02;11.80;99.90
34542;DHT22;20784;51.332;12.410;2022-11-02T07:04:31;12.00;99.90
34542;DHT22;20784;51.332;12.410;2022-11-02T07:07:02;12.30;99.90
34542;DHT22;20784;51.332;12.410;2022-11-02T07:09:36;12.30;99.90
34542;DHT22;20784;51.332;12.410;2022-11-02T07:12:07;12.30;99.90
34542;DHT22;20784;51.332;12.410;2022-11-02T07:14:36;12.40;99.90
34542;DHT22;20784;51.332;12.410;2022-11-02T07:17:19;12.80;99.90
34542;DHT22;20784;51.332;12.410;2022-11-02T07:19:51;13.30;99.90
34542;DHT22;20784;51.332;12.410;2022-11-02T07:22:31;13.90;99.90
34542;DHT22;20784;51.332;12.410;2022-11-02T07:25:10;14.80;99.90
34542;DHT22;20784;51.332;12.410;2022-11-02T07:27:39;15.70;99.90
34542;DHT22;20784;51.332;12.410;2022-11-02T07:30:07;16.60;99.90
34542;DHT22;20784;51.332;12.410;2022-11-02T07:33:00;17.10;99.90
34542;DHT22;20784;51.332;12.410;2022-11-02T07:35:41;17.90;99.90
34542;DHT22;20784;51.332;12.410;2022-11-02T07:38:10;18.50;99.90
34542;DHT22;20784;51.332;12.410;2022-11-02T07:40:47;19.80;99.90
34542;DHT22;20784;51.332;12.410;2022-11-02T07:43:22;20.80;99.90
34542;DHT22;20784;51.332;12.410;2022-11-02T07:45:48;20.60;99.90
34542;DHT22;20784;51.332;12.410;2022-11-02T07:48:16;19.40;99.90
34542;DHT22;20784;51.332;12.410;2022-11-02T07:50:52;19.50;99.90
34542;DHT22;20784;51.332;12.410;2022-11-02T07:53:18;20.30;99.90
34542;DHT22;20784;51.332;12.410;2022-11-02T07:56:14;21.10;99.90
34542;DHT22;20784;51.332;12.410;2022-11-02T07:59:22;22.00;99.90
34542;DHT22;20784;51.332;12.410;2022-11-02T08:05:09;20.70;99.90
34542;DHT22;20784;51.332;12.410;2022-11-02T08:08:02;21.50;99.90
34542;DHT22;20784;51.332;12.410;2022-11-02T08:11:17;21.80;99.90
34542;DHT22;20784;51.332;12.410;2022-11-02T08:20:30;22.70;99.90
34542;DHT22;20784;51.332;12.410;2022-11-02T08:34:37;23.50;99.90
34542;DHT22;20784;51.332;12.410;2022-11-02T08:37:14;25.20;99.90
34542;DHT22;20784;51.332;12.410;2022-11-02T08:43:14;26.60;99.90
34542;DHT22;20784;51.332;12.410;2022-11-02T08:45:43;27.60;99.90
34542;DHT22;20784;51.332;12.410;2022-11-02T08:48:21;26.90;99.40
34542;DHT22;20784;51.332;12.410;2022-11-02T08:51:04;27.50;98.70
34542;DHT22;20784;51.332;12.410;2022-11-02T08:54:05;28.30;97.00
34542;DHT22;20784;51.332;12.410;2022-11-02T08:57:11;28.50;94.50
34542;DHT22;20784;51.332;12.410;2022-11-02T08:59:42;29.00;93.70
34542;DHT22;20784;51.332;12.410;2022-11-02T09:02:42;28.20;93.60
34542;DHT22;20784;51.332;12.410;2022-11-02T09:05:32;27.10;94.70
34542;DHT22;20784;51.332;12.410;2022-11-02T09:08:35;27.40;94.10
34542;DHT22;20784;51.332;12.410;2022-11-02T09:11:04;26.70;95.40
34542;DHT22;20784;51.332;12.410;2022-11-02T09:13:41;26.70;94.60
34542;DHT22;20784;51.332;12.410;2022-11-02T09:16:30;26.20;95.40
34542;DHT22;20784;51.332;12.410;2022-11-02T09:18:55;26.90;94.40
34542;DHT22;20784;51.332;12.410;2022-11-02T09:21:38;26.90;94.60
34542;DHT22;20784;51.332;12.410;2022-11-02T09:24:12;26.50;94.70
34542;DHT22;20784;51.332;12.410;2022-11-02T09:26:38;27.50;95.90
34542;DHT22;20784;51.332;12.410;2022-11-02T09:29:04;27.90;94.40
34542;DHT22;20784;51.332;12.410;2022-11-02T09:32:04;28.70;92.40
34542;DHT22;20784;51.332;12.410;2022-11-02T09:34:59;29.20;91.10
34542;DHT22;20784;51.332;12.410;2022-11-02T09:37:54;28.80;90.50
34542;DHT22;20784;51.332;12.410;2022-11-02T09:43:57;28.50;90.20
34542;DHT22;20784;51.332;12.410;2022-11-02T09:46:37;27.40;92.10
34542;DHT22;20784;51.332;12.410;2022-11-02T09:49:18;27.80;91.40
34542;DHT22;20784;51.332;12.410;2022-11-02T09:51:54;27.30;91.80
34542;DHT22;20784;51.332;12.410;2022-11-02T09:54:44;27.50;91.00
34542;DHT22;20784;51.332;12.410;2022-11-02T09:57:35;28.10;90.40
34542;DHT22;20784;51.332;12.410;2022-11-02T10:00:11;28.10;90.00
34542;DHT22;20784;51.332;12.410;2022-11-02T10:03:08;27.80;89.80
34542;DHT22;20784;51.332;12.410;2022-11-02T10:05:57;27.10;91.10
34542;DHT22;20784;51.332;12.410;2022-11-02T10:08:37;27.60;91.30
34542;DHT22;20784;51.332;12.410;2022-11-02T10:14:17;28.10;88.30
34542;DHT22;20784;51.332;12.410;2022-11-02T10:16:58;28.60;87.70
34542;DHT22;20784;51.332;12.410;2022-11-02T10:19:25;28.30;87.40
34542;DHT22;20784;51.332;12.410;2022-11-02T10:21:56;28.80;83.50
34542;DHT22;20784;51.332;12.410;2022-11-02T10:24:38;28.10;83.40
34542;DHT22;20784;51.332;12.410;2022-11-02T10:27:20;27.80;85.00
34542;DHT22;20784;51.332;12.410;2022-11-02T10:30:09;26.40;87.20
34542;DHT22;20784;51.332;12.410;2022-11-02T10:32:40;26.30;86.30
34542;DHT22;20784;51.332;12.410;2022-11-02T10:35:38;26.40;86.30
34542;DHT22;20784;51.332;12.410;2022-11-02T10:46:58;25.50;87.10
34542;DHT22;20784;51.332;12.410;2022-11-02T10:50:05;26.30;85.60
34542;DHT22;20784;51.332;12.410;2022-11-02T10:52:39;26.70;84.30
34542;DHT22;20784;51.332;12.410;2022-11-02T10:55:12;25.80;85.60
34542;DHT22;20784;51.332;12.410;2022-11-02T10:57:40;25.30;85.20
34542;DHT22;20784;51.332;12.410;2022-11-02T11:03:11;24.80;86.90
34542;DHT22;20784;51.332;12.410;2022-11-02T11:05:59;24.00;90.00
34542;DHT22;20784;51.332;12.410;2022-11-02T11:08:38;24.30;90.30
34542;DHT22;20784;51.332;12.410;2022-11-02T11:11:19;25.00;87.30
34542;DHT22;20784;51.332;12.410;2022-11-02T11:14:01;24.90;87.40
34542;DHT22;20784;51.332;12.410;2022-11-02T11:16:37;25.00;85.80
34542;DHT22;20784;51.332;12.410;2022-11-02T11:21:56;24.70;87.00
34542;DHT22;20784;51.332;12.410;2022-11-02T11:24:30;24.30;87.50
34542;DHT22;20784;51.332;12.410;2022-11-02T11:29:33;24.70;87.40
34542;DHT22;20784;51.332;12.410;2022-11-02T11:32:00;25.30;85.60
34542;DHT22;20784;51.332;12.410;2022-11-02T11:34:28;24.70;86.10
34542;DHT22;20784;51.332;12.410;2022-11-02T11:37:19;23.70;90.80
34542;DHT22;20784;51.332;12.410;2022-11-02T11:40:08;24.90;89.30
34542;DHT22;20784;51.332;12.410;2022-11-02T11:42:51;26.20;85.40
34542;DHT22;20784;51.332;12.410;2022-11-02T11:45:32;27.40;81.90
34542;DHT22;20784;51.332;12.410;2022-11-02T11:48:39;27.30;80.80
34542;DHT22;20784;51.332;12.410;2022-11-02T11:54:22;23.30;86.70
34542;DHT22;20784;51.332;12.410;2022-11-02T11:56:50;21.60;91.10
34542;DHT22;20784;51.332;12.410;2022-11-02T12:02:22;20.10;93.60
34542;DHT22;20784;51.332;12.410;2022-11-02T12:04:49;19.10;95.40
34542;DHT22;20784;51.332;12.410;2022-11-02T12:07:21;19.00;96.80
34542;DHT22;20784;51.332;12.410;2022-11-02T12:12:40;19.50;97.10
34542;DHT22;20784;51.332;12.410;2022-11-02T12:18:19;19.40;97.00
34542;DHT22;20784;51.332;12.410;2022-11-02T12:26:34;18.10;99.90
34542;DHT22;20784;51.332;12.410;2022-11-02T12:29:06;18.10;99.90
34542;DHT22;20784;51.332;12.410;2022-11-02T12:31:41;18.30;99.90
34542;DHT22;20784;51.332;12.410;2022-11-02T12:38:02;18.60;99.90
34542;DHT22;20784;51.332;12.410;2022-11-02T12:41:01;18.80;99.90
34542;DHT22;20784;51.332;12.410;2022-11-02T12:47:24;18.50;99.90
34542;DHT22;20784;51.332;12.410;2022-11-02T12:55:56;17.80;99.90
34542;DHT22;20784;51.332;12.410;2022-11-02T12:58:34;17.50;99.90
34542;DHT22;20784;51.332;12.410;2022-11-02T13:01:21;17.60;99.90
34542;DHT22;20784;51.332;12.410;2022-11-02T14:46:55;15.60;99.90
34542;DHT22;20784;51.332;12.410;2022-11-02T14:49:32;15.70;99.90
34542;DHT22;20784;51.332;12.410;2022-11-02T14:55:03;15.70;99.90
34542;DHT22;20784;51.332;12.410;2022-11-02T14:57:49;15.70;99.90
34542;DHT22;20784;51.332;12.410;2022-11-02T15:00:32;15.60;99.90
34542;DHT22;20784;51.332;12.410;2022-11-02T15:03:03;15.70;99.90
34542;DHT22;20784;51.332;12.410;2022-11-02T15:05:36;15.60;99.90
34542;DHT22;20784;51.332;12.410;2022-11-02T15:18:38;15.50;99.90
34542;DHT22;20784;51.332;12.410;2022-11-02T15:21:48;15.30;99.90
34542;DHT22;20784;51.332;12.410;2022-11-02T15:24:34;15.30;99.90
34542;DHT22;20784;51.332;12.410;2022-11-02T15:27:39;15.20;99.90
34542;DHT22;20784;51.332;12.410;2022-11-02T15:30:27;15.10;99.90
34542;DHT22;20784;51.332;12.410;2022-11-02T15:33:06;15.00;99.90
34542;DHT22;20784;51.332;12.410;2022-11-02T15:35:42;14.90;99.90
34542;DHT22;20784;51.332;12.410;2022-11-02T15:38:27;14.90;99.90
34542;DHT22;20784;51.332;12.410;2022-11-02T16:01:29;14.60;99.90
34542;DHT22;20784;51.332;12.410;2022-11-02T16:04:11;14.40;99.90
34542;DHT22;20784;51.332;12.410;2022-11-02T16:07:12;14.40;99.90
34542;DHT22;20784;51.332;12.410;2022-11-02T16:09:42;14.40;99.90
34542;DHT22;20784;51.332;12.410;2022-11-02T16:12:23;14.20;99.90
34542;DHT22;20784;51.332;12.410;2022-11-02T16:15:13;14.20;99.90
34542;DHT22;20784;51.332;12.410;2022-11-02T16:17:47;14.20;99.90
34542;DHT22;20784;51.332;12.410;2022-11-02T16:20:36;14.20;99.90
34542;DHT22;20784;51.332;12.410;2022-11-02T16:23:19;14.10;99.90
34542;DHT22;20784;51.332;12.410;2022-11-02T16:25:51;14.10;99.90
34542;DHT22;20784;51.332;12.410;2022-11-02T16:28:26;14.00;99.90
34542;DHT22;20784;51.332;12.410;2022-11-02T16:31:20;14.00;99.90
34542;DHT22;20784;51.332;12.410;2022-11-02T16:33:54;13.90;99.90
34542;DHT22;20784;51.332;12.410;2022-11-02T16:36:41;13.90;99.90
34542;DHT22;20784;51.332;12.410;2022-11-02T16:42:29;13.80;99.90
34542;DHT22;20784;51.332;12.410;2022-11-02T16:44:59;13.80;99.90
34542;DHT22;20784;51.332;12.410;2022-11-02T16:47:38;13.80;99.90
34542;DHT22;20784;51.332;12.410;2022-11-02T16:50:21;13.70;99.90
34542;DHT22;20784;51.332;12.410;2022-11-02T16:53:25;13.70;99.90
34542;DHT22;20784;51.332;12.410;2022-11-02T16:55:53;13.70;99.90
34542;DHT22;20784;51.332;12.410;2022-11-02T16:58:26;13.50;99.90
34542;DHT22;20784;51.332;12.410;2022-11-02T17:03:28;13.50;99.90
34542;DHT22;20784;51.332;12.410;2022-11-02T17:06:00;13.50;99.90
34542;DHT22;20784;51.332;12.410;2022-11-02T17:08:34;13.50;99.90
34542;DHT22;20784;51.332;12.410;2022-11-02T17:11:02;13.60;99.90
34542;DHT22;20784;51.332;12.410;2022-11-02T17:13:37;13.50;99.90
34542;DHT22;20784;51.332;12.410;2022-11-02T17:19:45;13.50;99.90
34542;DHT22;20784;51.332;12.410;2022-11-02T17:25:53;13.40;99.90
34542;DHT22;20784;51.332;12.410;2022-11-02T17:31:30;13.40;99.90
34542;DHT22;20784;51.332;12.410;2022-11-02T17:34:37;13.30;99.90
34542;DHT22;20784;51.332;12.410;2022-11-02T17:37:03;13.20;99.90
34542;DHT22;20784;51.332;12.410;2022-11-02T17:39:32;13.20;99.90
34542;DHT22;20784;51.332;12.410;2022-11-02T17:41:58;13.20;99.90
34542;DHT22;20784;51.332;12.410;2022-11-02T17:44:45;13.20;99.90
34542;DHT22;20784;51.332;12.410;2022-11-02T17:47:18;13.20;99.90
34542;DHT22;20784;51.332;12.410;2022-11-02T17:49:46;13.20;99.90
34542;DHT22;20784;51.332;12.410;2022-11-02T17:52:13;13.10;99.90
34542;DHT22;20784;51.332;12.410;2022-11-02T17:54:42;13.10;99.90
34542;DHT22;20784;51.332;12.410;2022-11-02T17:57:12;13.10;99.90
34542;DHT22;20784;51.332;12.410;2022-11-02T17:59:41;13.10;99.90
34542;DHT22;20784;51.332;12.410;2022-11-02T18:02:12;13.00;99.90
34542;DHT22;20784;51.332;12.410;2022-11-02T18:04:38;13.00;99.90
34542;DHT22;20784;51.332;12.410;2022-11-02T18:07:06;13.00;99.90
34542;DHT22;20784;51.332;12.410;2022-11-02T18:09:37;13.00;99.90
34542;DHT22;20784;51.332;12.410;2022-11-02T18:15:04;13.00;99.90
34542;DHT22;20784;51.332;12.410;2022-11-02T18:17:30;12.90;99.90
34542;DHT22;20784;51.332;12.410;2022-11-02T18:23:34;12.80;99.90
34542;DHT22;20784;51.332;12.410;2022-11-02T18:26:27;12.80;99.90
34542;DHT22;20784;51.332;12.410;2022-11-02T18:29:45;12.70;99.90
34542;DHT22;20784;51.332;12.410;2022-11-02T18:39:06;12.70;99.90
34542;DHT22;20784;51.332;12.410;2022-11-02T18:41:42;12.70;99.90
34542;DHT22;20784;51.332;12.410;2022-11-02T18:47:20;12.60;99.90
34542;DHT22;20784;51.332;12.410;2022-11-02T19:01:57;12.20;99.90
34542;DHT22;20784;51.332;12.410;2022-11-02T19:05:16;12.20;99.90
34542;DHT22;20784;51.332;12.410;2022-11-02T19:08:07;12.10;99.90
34542;DHT22;20784;51.332;12.410;2022-11-02T19:14:18;12.10;99.90
34542;DHT22;20784;51.332;12.410;2022-11-02T19:20:07;11.90;99.90
34542;DHT22;20784;51.332;12.410;2022-11-02T19:22:33;11.90;99.90
34542;DHT22;20784;51.332;12.410;2022-11-02T19:25:08;11.90;99.90
34542;DHT22;20784;51.332;12.410;2022-11-02T19:30:32;11.80;99.90
34542;DHT22;20784;51.332;12.410;2022-11-02T19:32:58;11.70;99.90
34542;DHT22;20784;51.332;12.410;2022-11-02T19:35:23;11.80;99.90
34542;DHT22;20784;51.332;12.410;2022-11-02T19:37:49;11.70;99.90
34542;DHT22;20784;51.332;12.410;2022-11-02T19:40:15;11.70;99.90
34542;DHT22;20784;51.332;12.410;2022-11-02T19:42:40;11.60;99.90
34542;DHT22;20784;51.332;12.410;2022-11-02T19:45:06;11.60;99.90
34542;DHT22;20784;51.332;12.410;2022-11-02T19:47:34;11.60;99.90
34542;DHT22;20784;51.332;12.410;2022-11-02T19:50:10;11.50;99.90
34542;DHT22;20784;51.332;12.410;2022-11-02T19:52:35;11.50;99.90
34542;DHT22;20784;51.332;12.410;2022-11-02T19:55:01;11.50;99.90
34542;DHT22;20784;51.332;12.410;2022-11-02T19:57:28;11.50;99.90
34542;DHT22;20784;51.332;12.410;2022-11-02T19:59:54;11.60;99.90
34542;DHT22;20784;51.332;12.410;2022-11-02T20:02:28;11.50;99.90
34542;DHT22;20784;51.332;12.410;2022-11-02T20:04:59;11.50;99.90
34542;DHT22;20784;51.332;12.410;2022-11-02T20:07:33;11.50;99.90
34542;DHT22;20784;51.332;12.410;2022-11-02T20:09:59;11.40;99.90
34542;DHT22;20784;51.332;12.410;2022-11-02T20:12:27;11.40;99.90
34542;DHT22;20784;51.332;12.410;2022-11-02T20:14:53;11.40;99.90
34542;DHT22;20784;51.332;12.410;2022-11-02T20:17:18;11.40;99.90
34542;DHT22;20784;51.332;12.410;2022-11-02T20:19:44;11.40;99.90
34542;DHT22;20784;51.332;12.410;2022-11-02T20:22:13;11.30;99.90
34542;DHT22;20784;51.332;12.410;2022-11-02T20:24:39;11.30;99.90
34542;DHT22;20784;51.332;12.410;2022-11-02T20:27:04;11.30;99.90
34542;DHT22;20784;51.332;12.410;2022-11-02T20:29:35;11.20;99.90
34542;DHT22;20784;51.332;12.410;2022-11-02T20:32:01;11.30;99.90
34542;DHT22;20784;51.332;12.410;2022-11-02T20:34:31;11.20;99.90
34542;DHT22;20784;51.332;12.410;2022-11-02T20:36:57;11.20;99.90
34542;DHT22;20784;51.332;12.410;2022-11-02T20:39:23;11.20;99.90
34542;DHT22;20784;51.332;12.410;2022-11-02T20:42:01;11.10;99.90
34542;DHT22;20784;51.332;12.410;2022-11-02T20:44:27;11.00;99.90
34542;DHT22;20784;51.332;12.410;2022-11-02T20:46:52;11.10;99.90
34542;DHT22;20784;51.332;12.410;2022-11-02T20:49:18;11.00;99.90
34542;DHT22;20784;51.332;12.410;2022-11-02T20:51:43;11.00;99.90
34542;DHT22;20784;51.332;12.410;2022-11-02T20:54:09;10.90;99.90
34542;DHT22;20784;51.332;12.410;2022-11-02T20:56:38;10.80;99.90
34542;DHT22;20784;51.332;12.410;2022-11-02T20:59:06;10.90;99.90
34542;DHT22;20784;51.332;12.410;2022-11-02T21:01:35;10.70;99.90